createdAt,value
2018-02-24T00:00:35.254Z,16
2018-02-24T00:01:35.261Z,16
2018-02-24T00:02:35.267Z,16
2018-02-24T00:03:35.262Z,16
2018-02-24T00:04:35.249Z,16
2018-02-24T00:05:35.251Z,16
2018-02-24T00:06:35.255Z,16
2018-02-24T00:07:35.285Z,16
2018-02-24T00:08:35.256Z,16
2018-02-24T00:09:35.267Z,16
2018-02-24T00:10:35.251Z,16
2018-02-24T00:11:35.272Z,16
2018-02-24T00:12:35.254Z,16
2018-02-24T00:13:35.258Z,16
2018-02-24T00:14:35.559Z,16
2018-02-24T00:15:35.267Z,16
2018-02-24T00:16:35.246Z,16
2018-02-24T00:17:35.274Z,16
2018-02-24T00:18:35.258Z,16
2018-02-24T00:19:35.241Z,16
2018-02-24T00:20:35.258Z,16
2018-02-24T00:21:35.262Z,16
2018-02-24T00:22:35.248Z,16
2018-02-24T00:23:35.256Z,16
2018-02-24T00:24:35.257Z,15.75
2018-02-24T00:25:35.240Z,16
2018-02-24T00:26:35.529Z,16
2018-02-24T00:27:35.273Z,16
2018-02-24T00:28:35.236Z,16
2018-02-24T00:29:35.238Z,16
2018-02-24T00:30:35.287Z,15.75
2018-02-24T00:31:35.264Z,15.75
2018-02-24T00:32:35.254Z,16
2018-02-24T00:33:35.239Z,15.75
2018-02-24T00:34:35.252Z,15.75
2018-02-24T00:35:35.245Z,15.75
2018-02-24T00:36:35.239Z,16
2018-02-24T00:37:35.238Z,15.75
2018-02-24T00:38:35.242Z,15.75
2018-02-24T00:39:35.255Z,16
2018-02-24T00:40:35.241Z,15.75
2018-02-24T00:41:35.259Z,15.75
2018-02-24T00:42:35.239Z,15.75
2018-02-24T00:43:35.245Z,15.75
2018-02-24T00:44:35.257Z,15.75
2018-02-24T00:45:35.236Z,15.75
2018-02-24T00:46:35.244Z,15.75
2018-02-24T00:47:35.233Z,15.75
2018-02-24T00:48:35.245Z,15.75
2018-02-24T00:49:35.250Z,15.75
2018-02-24T00:50:35.224Z,15.75
2018-02-24T00:51:35.239Z,15.75
2018-02-24T00:52:35.244Z,15.75
2018-02-24T00:53:35.237Z,15.75
2018-02-24T00:54:35.608Z,15.75
2018-02-24T00:55:35.229Z,15.75
2018-02-24T00:56:35.248Z,15.75
2018-02-24T00:57:35.337Z,15.75
2018-02-24T00:58:35.240Z,15.75
2018-02-24T00:59:35.249Z,15.75
2018-02-24T01:00:35.231Z,15.75
2018-02-24T01:01:35.254Z,15.75
2018-02-24T01:02:35.238Z,15.75
2018-02-24T01:03:35.249Z,15.75
2018-02-24T01:04:35.269Z,15.75
2018-02-24T01:05:35.586Z,15.75
2018-02-24T01:06:35.237Z,15.75
2018-02-24T01:07:35.227Z,15.75
2018-02-24T01:08:35.248Z,15.75
2018-02-24T01:09:35.251Z,15.75
2018-02-24T01:10:35.241Z,15.75
2018-02-24T01:11:35.248Z,15.75
2018-02-24T01:12:35.231Z,15.75
2018-02-24T01:13:35.335Z,15.75
2018-02-24T01:14:35.259Z,15.75
2018-02-24T01:15:35.235Z,15.75
2018-02-24T01:16:35.238Z,15.75
2018-02-24T01:17:35.285Z,15.75
2018-02-24T01:18:35.229Z,15.75
2018-02-24T01:19:35.315Z,15.75
2018-02-24T01:20:35.235Z,15.75
2018-02-24T01:21:35.221Z,15.75
2018-02-24T01:22:35.225Z,15.75
2018-02-24T01:23:35.236Z,15.75
2018-02-24T01:24:35.246Z,15.75
2018-02-24T01:25:35.221Z,15.75
2018-02-24T01:26:35.254Z,15.75
2018-02-24T01:27:35.226Z,15.75
2018-02-24T01:28:35.230Z,15.75
2018-02-24T01:29:35.225Z,15.75
2018-02-24T01:30:35.225Z,15.75
2018-02-24T01:31:35.273Z,15.75
2018-02-24T01:32:35.215Z,15.75
2018-02-24T01:33:35.222Z,15.75
2018-02-24T01:34:35.223Z,15.75
2018-02-24T01:35:35.229Z,15.75
2018-02-24T01:36:35.216Z,15.75
2018-02-24T01:37:35.285Z,15.75
2018-02-24T01:38:35.237Z,15.75
2018-02-24T01:39:35.211Z,15.75
2018-02-24T01:40:35.236Z,15.75
2018-02-24T01:41:35.220Z,15.75
2018-02-24T01:42:35.229Z,15.75
2018-02-24T01:43:35.222Z,15.75
2018-02-24T01:44:35.213Z,15.75
2018-02-24T01:45:35.234Z,15.75
2018-02-24T01:46:35.231Z,15.75
2018-02-24T01:47:35.222Z,15.5
2018-02-24T01:48:35.212Z,15.5
2018-02-24T01:49:35.221Z,15.5
2018-02-24T01:50:35.210Z,15.5
2018-02-24T01:51:35.249Z,15.5
2018-02-24T01:52:35.218Z,15.5
2018-02-24T01:53:35.227Z,15.5
2018-02-24T01:54:35.342Z,15.5
2018-02-24T01:55:35.299Z,15.5
2018-02-24T01:56:35.482Z,15.5
2018-02-24T01:57:35.216Z,15.5
2018-02-24T01:58:35.208Z,15.5
2018-02-24T01:59:35.210Z,15.5
2018-02-24T02:00:35.220Z,15.5
2018-02-24T02:01:35.243Z,15.5
2018-02-24T02:02:35.219Z,15.5
2018-02-24T02:03:35.226Z,15.5
2018-02-24T02:04:35.224Z,15.5
2018-02-24T02:05:35.206Z,15.5
2018-02-24T02:06:35.208Z,15.5
2018-02-24T02:07:35.208Z,15.5
2018-02-24T02:08:35.209Z,15.5
2018-02-24T02:09:35.198Z,15.5
2018-02-24T02:10:35.232Z,15.5
2018-02-24T02:11:35.212Z,15.5
2018-02-24T02:12:35.229Z,15.5
2018-02-24T02:13:35.232Z,15.5
2018-02-24T02:14:35.209Z,15.5
2018-02-24T02:15:35.208Z,15.5
2018-02-24T02:16:35.197Z,15.5
2018-02-24T02:17:35.211Z,15.5
2018-02-24T02:18:35.217Z,15.5
2018-02-24T02:19:35.208Z,15.5
2018-02-24T02:20:35.206Z,15.5
2018-02-24T02:21:35.212Z,15.5
2018-02-24T02:22:35.495Z,15.5
2018-02-24T02:23:35.222Z,15.5
2018-02-24T02:24:35.201Z,15.5
2018-02-24T02:25:35.201Z,15.5
2018-02-24T02:26:35.221Z,15.5
2018-02-24T02:27:35.225Z,15.5
2018-02-24T02:28:35.218Z,15.5
2018-02-24T02:29:35.221Z,15.5
2018-02-24T02:30:35.196Z,15.5
2018-02-24T02:31:35.218Z,15.5
2018-02-24T02:32:35.249Z,15.5
2018-02-24T02:33:35.206Z,15.5
2018-02-24T02:34:35.219Z,15.5
2018-02-24T02:35:35.204Z,15.5
2018-02-24T02:36:35.198Z,15.5
2018-02-24T02:37:35.301Z,15.5
2018-02-24T02:38:35.210Z,15.5
2018-02-24T02:39:35.203Z,15.5
2018-02-24T02:40:35.193Z,15.5
2018-02-24T02:41:35.208Z,15.5
2018-02-24T02:42:35.208Z,15.5
2018-02-24T02:43:35.236Z,15.5
2018-02-24T02:44:35.223Z,15.5
2018-02-24T02:45:35.201Z,15.5
2018-02-24T02:46:35.189Z,15.5
2018-02-24T02:47:35.220Z,15.5
2018-02-24T02:48:35.490Z,15.5
2018-02-24T02:49:35.205Z,15.5
2018-02-24T02:50:35.210Z,15.5
2018-02-24T02:51:35.210Z,15.5
2018-02-24T02:52:35.221Z,15.5
2018-02-24T02:53:35.247Z,15.5
2018-02-24T02:54:35.191Z,15.5
2018-02-24T02:55:35.200Z,15.5
2018-02-24T02:56:35.204Z,15.5
2018-02-24T02:57:35.199Z,15.5
2018-02-24T02:58:35.219Z,15.5
2018-02-24T02:59:35.202Z,15.5
2018-02-24T03:00:35.198Z,15.5
2018-02-24T03:01:35.189Z,15.5
2018-02-24T03:02:35.175Z,15.5
2018-02-24T03:03:35.308Z,15.5
2018-02-24T03:04:35.203Z,15.25
2018-02-24T03:05:35.191Z,15.5
2018-02-24T03:06:35.211Z,15.5
2018-02-24T03:07:35.196Z,15.5
2018-02-24T03:08:35.222Z,15.5
2018-02-24T03:09:35.178Z,15.25
2018-02-24T03:10:35.194Z,15.25
2018-02-24T03:11:35.206Z,15.25
2018-02-24T03:12:35.198Z,15.25
2018-02-24T03:13:35.222Z,15.5
2018-02-24T03:14:35.198Z,15.25
2018-02-24T03:15:35.227Z,15.25
2018-02-24T03:16:35.198Z,15.25
2018-02-24T03:17:35.218Z,15.25
2018-02-24T03:18:35.181Z,15.25
2018-02-24T03:19:35.399Z,15.25
2018-02-24T03:20:35.185Z,15.25
2018-02-24T03:21:35.193Z,15.25
2018-02-24T03:22:35.174Z,15.25
2018-02-24T03:23:35.182Z,15.25
2018-02-24T03:24:35.192Z,15.25
2018-02-24T03:25:35.181Z,15.25
2018-02-24T03:26:35.183Z,15.25
2018-02-24T03:27:35.181Z,15.25
2018-02-24T03:28:35.174Z,15.25
2018-02-24T03:29:35.216Z,15.25
2018-02-24T03:30:35.210Z,15.25
2018-02-24T03:31:35.525Z,15.25
2018-02-24T03:32:35.201Z,15.25
2018-02-24T03:33:35.185Z,15.25
2018-02-24T03:34:35.209Z,15.25
2018-02-24T03:35:35.199Z,15.25
2018-02-24T03:36:35.179Z,15.25
2018-02-24T03:37:35.162Z,15.25
2018-02-24T03:38:35.167Z,15.25
2018-02-24T03:39:35.213Z,15.25
2018-02-24T03:40:35.202Z,15.25
2018-02-24T03:41:35.171Z,15.25
2018-02-24T03:42:35.190Z,15.25
2018-02-24T03:43:35.172Z,15.25
2018-02-24T03:44:35.219Z,15.25
2018-02-24T03:45:35.182Z,15.25
2018-02-24T03:46:35.454Z,15.25
2018-02-24T03:47:35.185Z,15.25
2018-02-24T03:48:35.175Z,15.25
2018-02-24T03:49:35.170Z,15.25
2018-02-24T03:50:35.179Z,15.25
2018-02-24T03:51:35.200Z,15.25
2018-02-24T03:52:35.161Z,15.25
2018-02-24T03:53:35.173Z,15.25
2018-02-24T03:54:35.172Z,15.25
2018-02-24T03:55:35.260Z,15.25
2018-02-24T03:56:35.296Z,15.25
2018-02-24T03:57:35.178Z,15.25
2018-02-24T03:58:35.179Z,15.25
2018-02-24T03:59:35.179Z,15.25
2018-02-24T04:00:35.422Z,15.25
2018-02-24T04:01:35.154Z,15.25
2018-02-24T04:02:35.172Z,15.25
2018-02-24T04:03:35.182Z,15.25
2018-02-24T04:04:35.172Z,15.25
2018-02-24T04:05:35.203Z,15.25
2018-02-24T04:06:35.270Z,15.25
2018-02-24T04:07:35.168Z,15.25
2018-02-24T04:08:35.172Z,15.25
2018-02-24T04:09:35.153Z,15.25
2018-02-24T04:10:35.208Z,15.25
2018-02-24T04:11:35.170Z,15.25
2018-02-24T04:12:35.153Z,15.25
2018-02-24T04:13:35.164Z,15.25
2018-02-24T04:14:35.262Z,15.25
2018-02-24T04:15:35.198Z,15.25
2018-02-24T04:16:35.438Z,15.25
2018-02-24T04:17:35.172Z,15.25
2018-02-24T04:18:35.144Z,15.25
2018-02-24T04:19:35.187Z,15.25
2018-02-24T04:20:35.196Z,15.25
2018-02-24T04:21:35.180Z,15.25
2018-02-24T04:22:35.263Z,15.25
2018-02-24T04:23:35.189Z,15.25
2018-02-24T04:24:35.157Z,15.25
2018-02-24T04:25:35.209Z,15.25
2018-02-24T04:26:35.142Z,15.25
2018-02-24T04:27:35.157Z,15.25
2018-02-24T04:28:35.169Z,15.25
2018-02-24T04:29:35.162Z,15.25
2018-02-24T04:30:35.199Z,15.25
2018-02-24T04:31:35.160Z,15.25
2018-02-24T04:32:35.163Z,15.25
2018-02-24T04:33:35.161Z,15.25
2018-02-24T04:34:35.164Z,15.25
2018-02-24T04:35:35.186Z,15.25
2018-02-24T04:36:35.198Z,15.25
2018-02-24T04:37:35.202Z,15.25
2018-02-24T04:38:35.163Z,15.25
2018-02-24T04:39:35.155Z,15.25
2018-02-24T04:40:35.211Z,15.25
2018-02-24T04:41:35.154Z,15.25
2018-02-24T04:42:35.170Z,15.25
2018-02-24T04:43:35.173Z,15.25
2018-02-24T04:44:35.197Z,15.25
2018-02-24T04:45:35.137Z,15
2018-02-24T04:46:35.165Z,15.25
2018-02-24T04:47:35.150Z,15.25
2018-02-24T04:48:35.159Z,15.25
2018-02-24T04:49:35.151Z,15.25
2018-02-24T04:50:35.171Z,15
2018-02-24T04:51:35.160Z,15
2018-02-24T04:52:35.151Z,15
2018-02-24T04:53:35.154Z,15
2018-02-24T04:54:35.180Z,15
2018-02-24T04:55:35.157Z,15
2018-02-24T04:56:35.150Z,15
2018-02-24T04:57:35.181Z,15
2018-02-24T04:58:35.194Z,15
2018-02-24T04:59:35.157Z,15
2018-02-24T05:00:35.141Z,15.25
2018-02-24T05:01:35.160Z,15.25
2018-02-24T05:02:35.171Z,15.25
2018-02-24T05:03:35.160Z,15.25
2018-02-24T05:04:35.135Z,15.25
2018-02-24T05:05:35.154Z,15.25
2018-02-24T05:06:35.154Z,15.25
2018-02-24T05:07:35.155Z,15.25
2018-02-24T05:08:35.155Z,15.25
2018-02-24T05:09:35.154Z,15.25
2018-02-24T05:10:35.144Z,15.25
2018-02-24T05:11:35.143Z,15.25
2018-02-24T05:12:35.139Z,15.25
2018-02-24T05:13:35.163Z,15.25
2018-02-24T05:14:35.156Z,15.25
2018-02-24T05:15:35.162Z,15.25
2018-02-24T05:16:35.147Z,15.25
2018-02-24T05:17:35.147Z,15.25
2018-02-24T05:18:35.143Z,15.25
2018-02-24T05:19:35.144Z,15.25
2018-02-24T05:20:35.189Z,15.25
2018-02-24T05:21:35.156Z,15.25
2018-02-24T05:22:35.139Z,15.25
2018-02-24T05:23:35.140Z,15.25
2018-02-24T05:24:35.141Z,15.25
2018-02-24T05:25:35.148Z,15.5
2018-02-24T05:26:35.138Z,15.5
2018-02-24T05:27:35.466Z,15.5
2018-02-24T05:28:35.160Z,15.5
2018-02-24T05:29:35.111Z,15.5
2018-02-24T05:30:35.142Z,15.5
2018-02-24T05:31:35.139Z,15.5
2018-02-24T05:32:35.178Z,15.5
2018-02-24T05:33:35.129Z,15.5
2018-02-24T05:34:35.125Z,15.5
2018-02-24T05:35:35.126Z,15.5
2018-02-24T05:36:35.150Z,15.5
2018-02-24T05:37:35.132Z,15.5
2018-02-24T05:38:35.142Z,15.5
2018-02-24T05:39:35.131Z,15.5
2018-02-24T05:40:35.132Z,15.5
2018-02-24T05:41:35.135Z,15.5
2018-02-24T05:42:35.144Z,15.5
2018-02-24T05:43:35.405Z,15.5
2018-02-24T05:44:35.149Z,15.75
2018-02-24T05:45:35.147Z,15.75
2018-02-24T05:46:35.130Z,15.75
2018-02-24T05:47:35.129Z,15.75
2018-02-24T05:48:35.157Z,15.75
2018-02-24T05:49:35.148Z,15.75
2018-02-24T05:50:35.133Z,15.75
2018-02-24T05:51:35.190Z,15.75
2018-02-24T05:52:35.127Z,15.75
2018-02-24T05:53:35.109Z,15.75
2018-02-24T05:54:35.146Z,15.75
2018-02-24T05:55:35.140Z,15.75
2018-02-24T05:56:35.220Z,15.75
2018-02-24T05:57:35.390Z,15.75
2018-02-24T05:58:35.163Z,15.75
2018-02-24T05:59:35.163Z,16
2018-02-24T06:00:35.141Z,15.75
2018-02-24T06:01:35.135Z,16
2018-02-24T06:02:35.117Z,16
2018-02-24T06:03:35.133Z,16
2018-02-24T06:04:35.399Z,16
2018-02-24T06:05:35.132Z,16
2018-02-24T06:06:35.128Z,16
2018-02-24T06:07:35.338Z,16
2018-02-24T06:08:35.121Z,16
2018-02-24T06:09:35.160Z,16
2018-02-24T06:10:35.141Z,16
2018-02-24T06:11:35.120Z,16
2018-02-24T06:12:35.128Z,16
2018-02-24T06:13:35.129Z,16
2018-02-24T06:14:35.144Z,16
2018-02-24T06:15:35.114Z,16
2018-02-24T06:16:35.116Z,16
2018-02-24T06:17:35.109Z,16
2018-02-24T06:18:35.139Z,16
2018-02-24T06:19:35.144Z,16
2018-02-24T06:20:35.126Z,16
2018-02-24T06:21:35.122Z,16
2018-02-24T06:22:35.123Z,16.25
2018-02-24T06:23:35.113Z,16.25
2018-02-24T06:24:35.144Z,16.25
2018-02-24T06:25:35.125Z,16.25
2018-02-24T06:26:35.129Z,16.25
2018-02-24T06:27:35.094Z,16.25
2018-02-24T06:28:35.108Z,16.25
2018-02-24T06:29:35.136Z,16.25
2018-02-24T06:30:35.112Z,16.25
2018-02-24T06:31:35.125Z,16.25
2018-02-24T06:32:35.136Z,16.25
2018-02-24T06:33:35.130Z,16.25
2018-02-24T06:34:35.387Z,16.25
2018-02-24T06:35:35.126Z,16.25
2018-02-24T06:36:35.106Z,16.25
2018-02-24T06:37:35.119Z,16.25
2018-02-24T06:38:35.104Z,16.25
2018-02-24T06:39:35.355Z,16.25
2018-02-24T06:40:35.160Z,16.25
2018-02-24T06:41:35.113Z,16.25
2018-02-24T06:42:35.120Z,16.25
2018-02-24T06:43:35.109Z,16.5
2018-02-24T06:44:35.150Z,16.5
2018-02-24T06:45:35.156Z,16.5
2018-02-24T06:46:35.098Z,16.5
2018-02-24T06:47:35.108Z,16.5
2018-02-24T06:48:35.110Z,16.5
2018-02-24T06:49:35.146Z,16.5
2018-02-24T06:50:35.101Z,16.5
2018-02-24T06:51:35.099Z,16.5
2018-02-24T06:52:34.968Z,16.5
2018-02-24T06:53:35.130Z,16.5
2018-02-24T06:54:35.133Z,16.5
2018-02-24T06:55:35.106Z,16.5
2018-02-24T06:56:35.104Z,16.5
2018-02-24T06:57:35.119Z,16.5
2018-02-24T06:58:35.104Z,16.5
2018-02-24T06:59:35.406Z,16.5
2018-02-24T07:00:35.103Z,16.5
2018-02-24T07:01:35.115Z,16.5
2018-02-24T07:02:35.107Z,16.5
2018-02-24T07:03:35.111Z,16.5
2018-02-24T07:04:35.141Z,16.5
2018-02-24T07:05:35.112Z,16.75
2018-02-24T07:06:35.096Z,16.75
2018-02-24T07:07:35.096Z,16.75
2018-02-24T07:08:35.093Z,16.75
2018-02-24T07:09:35.130Z,16.75
2018-02-24T07:10:35.113Z,16.75
2018-02-24T07:11:35.088Z,16.75
2018-02-24T07:12:35.091Z,16.75
2018-02-24T07:13:35.096Z,16.75
2018-02-24T07:14:35.180Z,16.75
2018-02-24T07:15:35.112Z,16.75
2018-02-24T07:16:35.096Z,16.75
2018-02-24T07:17:35.106Z,16.75
2018-02-24T07:18:35.092Z,16.75
2018-02-24T07:19:35.365Z,16.75
2018-02-24T07:20:35.134Z,16.75
2018-02-24T07:21:35.102Z,16.75
2018-02-24T07:22:35.102Z,16.75
2018-02-24T07:23:35.197Z,16.75
2018-02-24T07:24:35.118Z,16.75
2018-02-24T07:25:35.110Z,16.75
2018-02-24T07:26:35.095Z,16.75
2018-02-24T07:27:35.098Z,16.75
2018-02-24T07:28:35.100Z,16.75
2018-02-24T07:29:35.126Z,16.75
2018-02-24T07:30:35.092Z,16.75
2018-02-24T07:31:35.197Z,16.75
2018-02-24T07:32:35.092Z,16.75
2018-02-24T07:33:35.108Z,16.75
2018-02-24T07:34:35.126Z,16.75
2018-02-24T07:35:35.101Z,16.75
2018-02-24T07:36:35.099Z,16.75
2018-02-24T07:37:35.092Z,16.75
2018-02-24T07:38:35.363Z,16.75
2018-02-24T07:39:35.094Z,16.75
2018-02-24T07:40:35.087Z,16.75
2018-02-24T07:41:35.104Z,16.75
2018-02-24T07:42:35.127Z,16.75
2018-02-24T07:43:35.119Z,16.75
2018-02-24T07:44:35.099Z,16.75
2018-02-24T07:45:35.083Z,16.75
2018-02-24T07:46:35.112Z,16.75
2018-02-24T07:47:35.092Z,16.75
2018-02-24T07:48:35.110Z,16.75
2018-02-24T07:49:35.171Z,16.75
2018-02-24T07:50:35.362Z,16.75
2018-02-24T07:51:35.083Z,16.75
2018-02-24T07:52:35.086Z,16.75
2018-02-24T07:53:35.119Z,16.75
2018-02-24T07:54:35.083Z,17
2018-02-24T07:55:35.113Z,17
2018-02-24T07:56:35.108Z,17
2018-02-24T07:57:35.200Z,17
2018-02-24T07:58:35.089Z,17
2018-02-24T07:59:35.089Z,17
2018-02-24T08:00:35.085Z,17
2018-02-24T08:01:35.103Z,17
2018-02-24T08:02:35.080Z,17
2018-02-24T08:03:35.090Z,17
2018-02-24T08:04:35.082Z,17
2018-02-24T08:05:35.103Z,17
2018-02-24T08:06:35.121Z,17
2018-02-24T08:07:35.092Z,17
2018-02-24T08:08:35.087Z,17
2018-02-24T08:09:35.075Z,17
2018-02-24T08:10:35.367Z,17
2018-02-24T08:11:35.098Z,17
2018-02-24T08:12:35.081Z,17
2018-02-24T08:13:35.089Z,17
2018-02-24T08:14:35.089Z,17
2018-02-24T08:15:35.096Z,17
2018-02-24T08:16:35.081Z,17
2018-02-24T08:17:35.380Z,17
2018-02-24T08:18:35.085Z,17
2018-02-24T08:19:35.077Z,17
2018-02-24T08:20:35.064Z,17
2018-02-24T08:21:35.086Z,17
2018-02-24T08:22:35.070Z,17
2018-02-24T08:23:35.071Z,17.25
2018-02-24T08:24:35.072Z,17.25
2018-02-24T08:25:35.355Z,17.25
2018-02-24T08:26:35.093Z,17.25
2018-02-24T08:27:35.085Z,17.25
2018-02-24T08:28:35.069Z,17.25
2018-02-24T08:29:35.067Z,17.25
2018-02-24T08:30:35.099Z,17.25
2018-02-24T08:31:35.105Z,17.25
2018-02-24T08:32:35.064Z,17.25
2018-02-24T08:33:35.088Z,17.25
2018-02-24T08:34:35.073Z,17.25
2018-02-24T08:35:35.068Z,17.25
2018-02-24T08:36:35.089Z,17.25
2018-02-24T08:37:35.193Z,17.25
2018-02-24T08:38:35.173Z,17.25
2018-02-24T08:39:35.156Z,17.25
2018-02-24T08:40:35.105Z,17.25
2018-02-24T08:41:35.098Z,17.25
2018-02-24T08:42:35.078Z,17.25
2018-02-24T08:43:35.086Z,17.25
2018-02-24T08:44:35.066Z,17.25
2018-02-24T08:45:35.083Z,17.25
2018-02-24T08:46:35.091Z,17.25
2018-02-24T08:47:35.087Z,17.25
2018-02-24T08:48:35.056Z,17.25
2018-02-24T08:49:35.065Z,17.25
2018-02-24T08:50:35.065Z,17.25
2018-02-24T08:51:35.093Z,17.25
2018-02-24T08:52:35.070Z,17.25
2018-02-24T08:53:35.066Z,17.25
2018-02-24T08:54:35.074Z,17.25
2018-02-24T08:55:35.058Z,17.25
2018-02-24T08:56:35.104Z,17.25
2018-02-24T08:57:35.079Z,17.25
2018-02-24T08:58:35.073Z,17.5
2018-02-24T08:59:35.084Z,17.5
2018-02-24T09:00:35.068Z,17.25
2018-02-24T09:01:35.062Z,17.5
2018-02-24T09:02:35.094Z,17.5
2018-02-24T09:03:35.064Z,17.5
2018-02-24T09:04:35.083Z,17.5
2018-02-24T09:05:35.052Z,17.5
2018-02-24T09:06:35.070Z,17.5
2018-02-24T09:07:35.292Z,17.5
2018-02-24T09:08:35.054Z,17.5
2018-02-24T09:09:35.060Z,17.5
2018-02-24T09:10:35.066Z,17.5
2018-02-24T09:11:35.079Z,17.5
2018-02-24T09:12:35.065Z,17.5
2018-02-24T09:13:35.177Z,17.5
2018-02-24T09:14:35.091Z,17.5
2018-02-24T09:15:35.073Z,17.5
2018-02-24T09:16:35.052Z,17.5
2018-02-24T09:17:35.087Z,17.5
2018-02-24T09:18:35.063Z,17.5
2018-02-24T09:19:35.059Z,17.5
2018-02-24T09:20:35.062Z,17.5
2018-02-24T09:21:35.048Z,17.5
2018-02-24T09:22:35.088Z,17.5
2018-02-24T09:23:35.083Z,17.5
2018-02-24T09:24:35.068Z,17.5
2018-02-24T09:25:35.061Z,17.5
2018-02-24T09:26:35.043Z,17.5
2018-02-24T09:27:35.090Z,17.5
2018-02-24T09:28:35.069Z,17.5
2018-02-24T09:29:35.059Z,17.5
2018-02-24T09:30:35.058Z,17.5
2018-02-24T09:31:35.057Z,17.5
2018-02-24T09:32:35.094Z,17.5
2018-02-24T09:33:35.064Z,17.5
2018-02-24T09:34:35.054Z,17.5
2018-02-24T09:35:35.059Z,17.5
2018-02-24T09:36:35.080Z,17.5
2018-02-24T09:37:35.311Z,17.5
2018-02-24T09:38:35.078Z,17.5
2018-02-24T09:39:35.045Z,17.5
2018-02-24T09:40:35.047Z,17.5
2018-02-24T09:41:35.040Z,17.5
2018-02-24T09:42:35.089Z,17.5
2018-02-24T09:43:35.059Z,17.5
2018-02-24T09:44:35.052Z,17.5
2018-02-24T09:45:35.046Z,17.5
2018-02-24T09:46:35.037Z,17.5
2018-02-24T09:47:35.084Z,17.5
2018-02-24T09:48:35.062Z,17.5
2018-02-24T09:49:35.053Z,17.5
2018-02-24T09:50:35.341Z,17.5
2018-02-24T09:51:35.062Z,17.5
2018-02-24T09:52:35.058Z,17.5
2018-02-24T09:53:35.010Z,17.5
2018-02-24T09:54:35.048Z,17.5
2018-02-24T09:55:35.079Z,17.5
2018-02-24T09:56:35.057Z,17.5
2018-02-24T09:57:35.039Z,17.5
2018-02-24T09:58:35.154Z,17.5
2018-02-24T09:59:35.120Z,17.5
2018-02-24T10:00:35.087Z,17.5
2018-02-24T10:01:35.058Z,17.5
2018-02-24T10:02:35.045Z,17.5
2018-02-24T10:03:35.054Z,17.5
2018-02-24T10:04:35.075Z,17.5
2018-02-24T10:05:35.064Z,17.5
2018-02-24T10:06:35.042Z,17.5
2018-02-24T10:07:35.033Z,17.5
2018-02-24T10:08:35.069Z,17.5
2018-02-24T10:09:35.046Z,17.5
2018-02-24T10:10:35.065Z,17.5
2018-02-24T10:11:35.037Z,17.5
2018-02-24T10:12:35.039Z,17.5
2018-02-24T10:13:35.033Z,17.5
2018-02-24T10:14:35.043Z,17.5
2018-02-24T10:15:35.087Z,17.5
2018-02-24T10:16:35.049Z,17.5
2018-02-24T10:17:35.039Z,17.5
2018-02-24T10:18:35.031Z,17.5
2018-02-24T10:19:35.046Z,17.5
2018-02-24T10:20:35.087Z,17.5
2018-02-24T10:21:35.047Z,17.5
2018-02-24T10:22:35.031Z,17.5
2018-02-24T10:23:35.062Z,17.5
2018-02-24T10:24:35.054Z,17.5
2018-02-24T10:25:35.074Z,17.5
2018-02-24T10:26:35.045Z,17.5
2018-02-24T10:27:35.038Z,17.5
2018-02-24T10:28:35.051Z,17.5
2018-02-24T10:29:35.039Z,17.5
2018-02-24T10:30:35.080Z,17.5
2018-02-24T10:31:35.049Z,17.5
2018-02-24T10:32:35.041Z,17.5
2018-02-24T10:33:35.029Z,17.5
2018-02-24T10:34:35.078Z,17.5
2018-02-24T10:35:35.063Z,17.5
2018-02-24T10:36:35.023Z,17.5
2018-02-24T10:37:35.081Z,17.5
2018-02-24T10:38:35.046Z,17.5
2018-02-24T10:39:35.049Z,17.5
2018-02-24T10:40:35.129Z,17.5
2018-02-24T10:41:35.038Z,17.5
2018-02-24T10:42:35.077Z,17.5
2018-02-24T10:43:35.032Z,17.5
2018-02-24T10:44:35.022Z,17.5
2018-02-24T10:45:35.104Z,17.5
2018-02-24T10:46:35.025Z,17.75
2018-02-24T10:47:35.036Z,17.5
2018-02-24T10:48:35.314Z,17.75
2018-02-24T10:49:35.042Z,17.5
2018-02-24T10:50:35.031Z,17.75
2018-02-24T10:51:35.027Z,17.75
2018-02-24T10:52:35.060Z,17.75
2018-02-24T10:53:35.075Z,17.75
2018-02-24T10:54:35.032Z,17.75
2018-02-24T10:55:35.026Z,17.75
2018-02-24T10:56:35.121Z,17.75
2018-02-24T10:57:35.058Z,17.75
2018-02-24T10:58:35.034Z,17.75
2018-02-24T10:59:35.034Z,17.5
2018-02-24T11:00:35.036Z,17.75
2018-02-24T11:01:35.029Z,17.75
2018-02-24T11:02:35.025Z,17.75
2018-02-24T11:03:35.058Z,17.75
2018-02-24T11:04:35.019Z,17.75
2018-02-24T11:05:35.116Z,17.75
2018-02-24T11:06:35.020Z,17.75
2018-02-24T11:07:35.023Z,17.75
2018-02-24T11:08:35.118Z,17.75
2018-02-24T11:09:35.043Z,17.75
2018-02-24T11:10:35.032Z,17.75
2018-02-24T11:11:35.023Z,17.75
2018-02-24T11:12:35.128Z,17.75
2018-02-24T11:13:35.025Z,17.75
2018-02-24T11:14:35.300Z,17.75
2018-02-24T11:15:35.019Z,17.5
2018-02-24T11:16:35.026Z,17.5
2018-02-24T11:17:35.018Z,17.5
2018-02-24T11:18:35.024Z,17.5
2018-02-24T11:19:35.072Z,17.75
2018-02-24T11:20:35.028Z,17.75
2018-02-24T11:21:35.043Z,17.75
2018-02-24T11:22:35.010Z,17.75
2018-02-24T11:23:35.017Z,17.75
2018-02-24T11:24:35.027Z,17.75
2018-02-24T11:25:35.041Z,17.75
2018-02-24T11:26:35.025Z,17.75
2018-02-24T11:27:35.030Z,17.75
2018-02-24T11:28:35.016Z,17.75
2018-02-24T11:29:35.015Z,17.75
2018-02-24T11:30:35.294Z,17.75
2018-02-24T11:31:35.008Z,17.75
2018-02-24T11:32:35.011Z,17.75
2018-02-24T11:33:35.016Z,17.75
2018-02-24T11:34:35.034Z,17.75
2018-02-24T11:35:35.054Z,17.75
2018-02-24T11:36:35.008Z,18
2018-02-24T11:37:35.017Z,18
2018-02-24T11:38:35.007Z,18
2018-02-24T11:39:35.012Z,18
2018-02-24T11:40:35.030Z,18
2018-02-24T11:41:35.020Z,18
2018-02-24T11:42:35.270Z,18
2018-02-24T11:43:35.297Z,18
2018-02-24T11:44:35.006Z,18
2018-02-24T11:45:35.010Z,18
2018-02-24T11:46:35.250Z,18
2018-02-24T11:47:35.028Z,18
2018-02-24T11:48:35.003Z,18
2018-02-24T11:49:35.003Z,18
2018-02-24T11:50:35.035Z,18
2018-02-24T11:51:35.004Z,18
2018-02-24T11:52:35.037Z,18
2018-02-24T11:53:35.006Z,18
2018-02-24T11:54:24.548Z,18.25
2018-02-24T11:55:33.252Z,18.25
2018-02-24T11:56:32.779Z,18.25
2018-02-24T11:57:32.788Z,18.5
2018-02-24T11:58:32.833Z,18.5
2018-02-24T11:59:32.792Z,18.5
2018-02-24T12:00:18.682Z,18.5
2018-02-24T12:01:17.944Z,18.5
2018-02-24T12:02:17.961Z,18.5
2018-02-24T12:03:17.956Z,18.5
2018-02-24T12:04:17.948Z,18.5
2018-02-24T12:05:17.959Z,18.5
2018-02-24T12:06:17.941Z,18.5
2018-02-24T12:07:17.946Z,18.5
2018-02-24T12:08:17.941Z,18.5
2018-02-24T12:09:17.940Z,18.5
2018-02-24T12:10:17.948Z,18.5
2018-02-24T12:11:17.986Z,18.5
2018-02-24T12:11:58.321Z,18.5
2018-02-24T12:12:57.584Z,18.5
2018-02-24T12:13:57.584Z,18.5
2018-02-24T12:14:57.623Z,18.5
2018-02-24T12:16:14.027Z,18.5
2018-02-24T12:16:56.170Z,18.5
2018-02-24T12:17:55.811Z,18.5
2018-02-24T12:18:55.784Z,18.5
2018-02-24T12:19:55.787Z,18.5
2018-02-24T12:20:55.783Z,18.5
2018-02-24T12:21:55.823Z,18.5
2018-02-24T12:22:55.798Z,18.5
2018-02-24T12:23:55.785Z,18.5
2018-02-24T12:24:55.783Z,18.5
2018-02-24T12:25:55.807Z,18.5
2018-02-24T12:26:55.795Z,18.5
2018-02-24T12:27:55.813Z,18.75
2018-02-24T12:28:55.772Z,18.75
2018-02-24T12:29:55.813Z,18.5
2018-02-24T12:30:55.794Z,18.5
2018-02-24T12:31:55.807Z,18.5
2018-02-24T12:32:55.820Z,18.5
2018-02-24T12:33:55.807Z,18.5
2018-02-24T12:34:55.781Z,18.5
2018-02-24T12:35:55.783Z,18.5
2018-02-24T12:36:55.770Z,18.5
2018-02-24T12:37:55.769Z,18.5
2018-02-24T12:38:55.785Z,18.5
2018-02-24T12:39:55.772Z,18.75
2018-02-24T12:40:55.802Z,18.75
2018-02-24T12:41:55.820Z,18.5
2018-02-24T12:42:55.812Z,18.5
2018-02-24T12:43:55.780Z,18.75
2018-02-24T12:44:55.770Z,18.5
2018-02-24T12:45:55.782Z,18.5
2018-02-24T12:46:55.781Z,18.5
2018-02-24T12:47:55.768Z,18.5
2018-02-24T12:48:55.793Z,18.5
2018-02-24T12:49:56.789Z,18.5
2018-02-24T12:50:55.952Z,18.5
2018-02-24T12:51:55.763Z,18.5
2018-02-24T12:52:55.773Z,18.5
2018-02-24T12:53:55.779Z,18.75
2018-02-24T12:54:55.761Z,18.5
2018-02-24T12:55:55.759Z,18.5
2018-02-24T12:56:55.753Z,18.5
2018-02-24T12:57:55.808Z,18.5
2018-02-24T12:58:55.789Z,18.5
2018-02-24T12:59:55.762Z,18.75
2018-02-24T13:00:56.021Z,18.5
2018-02-24T13:01:55.764Z,18.5
2018-02-24T13:02:55.765Z,18.5
2018-02-24T13:03:55.783Z,18.5
2018-02-24T13:04:55.769Z,18.5
2018-02-24T13:05:55.789Z,18.5
2018-02-24T13:06:55.784Z,18.5
2018-02-24T13:07:55.771Z,18.5
2018-02-24T13:08:55.769Z,18.5
2018-02-24T13:09:55.779Z,18.5
2018-02-24T13:10:55.766Z,18.5
2018-02-24T13:11:55.767Z,18.5
2018-02-24T13:12:55.777Z,18.75